createdAt,value
2023-03-27T00:02:26.042Z,2.03
2023-03-27T00:04:54.691Z,1.30
2023-03-27T00:07:22.779Z,1.13
2023-03-27T00:09:49.888Z,1.90
2023-03-27T00:12:17.503Z,1.88
2023-03-27T00:14:45.848Z,2.13
2023-03-27T00:17:13.497Z,1.20
2023-03-27T00:19:40.619Z,1.17
2023-03-27T00:22:08.004Z,1.35
2023-03-27T00:24:36.773Z,1.23
2023-03-27T00:27:04.125Z,1.30
2023-03-27T00:29:31.145Z,1.35
2023-03-27T00:31:58.510Z,1.00
2023-03-27T00:34:25.649Z,1.45
2023-03-27T00:36:53.771Z,1.58
2023-03-27T00:39:20.821Z,1.23
2023-03-27T00:41:49.301Z,1.40
2023-03-27T00:44:23.927Z,1.70
2023-03-27T00:46:54.551Z,1.70
2023-03-27T00:49:23.701Z,1.55
2023-03-27T00:51:53.142Z,1.50
2023-03-27T00:54:26.699Z,1.60
2023-03-27T00:57:00.081Z,1.98
2023-03-27T00:59:31.838Z,2.17
2023-03-27T01:02:01.765Z,1.42
2023-03-27T01:07:00.835Z,1.30
2023-03-27T01:09:27.838Z,1.17
2023-03-27T01:11:59.200Z,1.13
2023-03-27T01:17:35.094Z,1.77
2023-03-27T01:20:41.089Z,1.52
2023-03-27T01:23:59.530Z,1.50
2023-03-27T01:26:42.358Z,1.70
2023-03-27T01:29:48.432Z,2.05
2023-03-27T01:32:42.893Z,2.95
2023-03-27T01:35:39.840Z,2.65
2023-03-27T01:38:35.564Z,1.60
2023-03-27T01:41:11.642Z,1.40
2023-03-27T01:43:52.068Z,1.45
2023-03-27T01:46:31.686Z,1.90
2023-03-27T01:49:13.101Z,1.92
2023-03-27T01:51:46.214Z,1.70
2023-03-27T01:54:26.140Z,1.60
2023-03-27T01:57:22.375Z,0.98
2023-03-27T02:00:19.386Z,1.15
2023-03-27T02:03:02.401Z,0.82
2023-03-27T02:05:34.805Z,0.88
2023-03-27T02:08:16.526Z,0.90
2023-03-27T02:10:49.858Z,0.80
2023-03-27T02:13:27.305Z,0.90
2023-03-27T02:15:56.582Z,0.90
2023-03-27T02:18:32.432Z,1.20
2023-03-27T02:20:59.814Z,1.23
2023-03-27T02:23:30.915Z,1.65
2023-03-27T02:25:58.463Z,2.17
2023-03-27T02:28:27.966Z,1.80
2023-03-27T02:31:33.450Z,1.55
2023-03-27T02:34:29.160Z,1.58
2023-03-27T02:37:06.295Z,1.83
2023-03-27T02:40:20.097Z,1.42
2023-03-27T02:42:56.172Z,1.80
2023-03-27T02:45:35.798Z,1.95
2023-03-27T02:48:10.057Z,2.38
2023-03-27T02:50:43.968Z,2.10
2023-03-27T02:53:17.434Z,2.83
2023-03-27T02:56:00.545Z,2.58
2023-03-27T02:58:34.343Z,2.72
2023-03-27T03:01:16.642Z,4.00
2023-03-27T03:04:26.403Z,2.53
2023-03-27T03:07:16.134Z,1.95
2023-03-27T03:09:44.615Z,1.90
2023-03-27T03:12:12.230Z,2.60
2023-03-27T03:14:45.924Z,5.13
2023-03-27T03:17:14.628Z,2.65
2023-03-27T03:19:42.052Z,2.42
2023-03-27T03:22:09.970Z,2.10
2023-03-27T03:24:41.766Z,2.95
2023-03-27T03:27:10.810Z,3.25
2023-03-27T03:29:50.583Z,5.57
2023-03-27T03:32:26.432Z,9.27
2023-03-27T03:34:53.834Z,2.70
2023-03-27T03:37:21.322Z,2.90
2023-03-27T03:39:48.386Z,2.58
2023-03-27T03:42:22.781Z,6.70
2023-03-27T03:44:52.230Z,32.38
2023-03-27T03:47:21.605Z,6.78
2023-03-27T03:49:49.366Z,5.50
2023-03-27T03:52:16.867Z,6.63
2023-03-27T03:54:46.230Z,1.90
2023-03-27T03:57:14.323Z,2.28
2023-03-27T03:59:42.713Z,6.63
2023-03-27T04:02:31.464Z,3.10
2023-03-27T04:05:11.847Z,2.97
2023-03-27T04:07:41.069Z,2.63
2023-03-27T04:10:27.783Z,3.20
2023-03-27T04:12:56.234Z,3.40
2023-03-27T04:15:27.931Z,2.70
2023-03-27T04:18:32.677Z,3.80
2023-03-27T04:21:03.055Z,3.00
2023-03-27T04:23:30.960Z,4.40
2023-03-27T04:26:00.718Z,3.03
2023-03-27T04:28:42.481Z,9.57
2023-03-27T04:31:34.531Z,5.88
2023-03-27T04:34:33.986Z,4.22
2023-03-27T04:37:09.062Z,4.70
2023-03-27T04:39:42.988Z,6.05
2023-03-27T04:42:10.817Z,3.67
2023-03-27T04:44:39.061Z,1.42
2023-03-27T04:47:08.989Z,1.23
2023-03-27T04:49:40.657Z,1.60
2023-03-27T04:52:18.713Z,1.60
2023-03-27T04:54:46.652Z,1.23
2023-03-27T04:57:15.747Z,1.30
2023-03-27T04:59:43.235Z,1.70
2023-03-27T05:02:43.006Z,1.20
2023-03-27T05:05:18.139Z,1.60
2023-03-27T05:07:47.865Z,3.55
2023-03-27T05:10:21.716Z,9.10
2023-03-27T05:12:51.900Z,3.90
2023-03-27T05:15:21.615Z,7.18
2023-03-27T05:17:55.907Z,14.65
2023-03-27T05:20:26.511Z,16.55
2023-03-27T05:22:54.784Z,13.57
2023-03-27T05:25:26.681Z,8.45
2023-03-27T05:27:55.050Z,8.23
2023-03-27T05:30:26.901Z,7.72
2023-03-27T05:33:14.049Z,5.78
2023-03-27T05:35:48.205Z,3.67
2023-03-27T05:38:16.238Z,2.40
2023-03-27T05:41:12.922Z,2.45
2023-03-27T05:43:47.120Z,2.65
2023-03-27T05:46:20.783Z,3.25
2023-03-27T05:48:59.317Z,4.30
2023-03-27T05:51:27.660Z,2.67
2023-03-27T05:53:55.080Z,3.40
2023-03-27T05:56:27.145Z,2.65
2023-03-27T05:58:58.146Z,2.75
2023-03-27T06:01:27.855Z,4.13
2023-03-27T06:03:57.449Z,2.65
2023-03-27T06:06:29.681Z,3.30
2023-03-27T06:08:59.428Z,3.22
2023-03-27T06:11:28.261Z,10.73
2023-03-27T06:13:58.474Z,3.25
2023-03-27T06:16:38.402Z,2.78
2023-03-27T06:19:31.591Z,4.05
2023-03-27T06:21:58.942Z,4.05
2023-03-27T06:24:26.377Z,5.15
2023-03-27T06:26:54.108Z,2.47
2023-03-27T06:29:21.488Z,2.47
2023-03-27T06:31:51.675Z,4.72
2023-03-27T06:34:39.170Z,4.80
2023-03-27T06:37:26.568Z,3.88
2023-03-27T06:39:54.834Z,6.25
2023-03-27T06:42:22.325Z,9.10
2023-03-27T06:44:59.477Z,4.13
2023-03-27T06:47:54.666Z,4.85
2023-03-27T06:50:34.366Z,3.72
2023-03-27T06:53:05.866Z,3.73
2023-03-27T06:55:40.960Z,3.45
2023-03-27T06:58:08.680Z,3.90
2023-03-27T07:00:37.407Z,1.92
2023-03-27T07:03:21.934Z,2.22
2023-03-27T07:05:58.094Z,2.25
2023-03-27T07:08:29.536Z,3.70
2023-03-27T07:13:41.166Z,2.10
2023-03-27T07:16:14.480Z,3.60
2023-03-27T07:18:42.546Z,2.60
2023-03-27T07:21:10.146Z,4.43
2023-03-27T07:23:38.370Z,4.00
2023-03-27T07:26:08.904Z,4.72
2023-03-27T07:28:58.487Z,2.28
2023-03-27T07:31:40.285Z,1.67
2023-03-27T07:34:15.771Z,3.55
2023-03-27T07:37:01.044Z,4.75
2023-03-27T07:39:28.812Z,3.92
2023-03-27T07:41:56.119Z,4.53
2023-03-27T07:44:29.245Z,1.40
2023-03-27T07:47:01.409Z,1.30
2023-03-27T07:49:39.934Z,1.20
2023-03-27T07:52:11.197Z,4.75
2023-03-27T07:54:48.928Z,2.90
2023-03-27T07:57:18.615Z,5.85
2023-03-27T07:59:52.757Z,2.15
2023-03-27T08:02:30.659Z,6.18
2023-03-27T08:04:58.382Z,2.95
2023-03-27T08:07:25.849Z,1.60
2023-03-27T08:09:57.559Z,3.30
2023-03-27T08:12:25.405Z,1.60
2023-03-27T08:14:59.038Z,2.78
2023-03-27T08:17:31.041Z,2.05
2023-03-27T08:19:59.536Z,1.33
2023-03-27T08:22:26.657Z,2.30
2023-03-27T08:25:12.668Z,1.63
2023-03-27T08:27:41.021Z,1.20
2023-03-27T08:30:09.328Z,3.63
2023-03-27T08:32:39.895Z,1.58
2023-03-27T08:35:10.193Z,1.83
2023-03-27T08:37:37.680Z,1.15
2023-03-27T08:40:38.299Z,1.83
2023-03-27T08:43:23.813Z,1.92
2023-03-27T08:48:30.456Z,1.60
2023-03-27T08:51:04.450Z,1.58
2023-03-27T08:54:10.094Z,1.48
2023-03-27T08:56:37.599Z,7.07
2023-03-27T08:59:11.676Z,3.15
2023-03-27T09:01:46.809Z,4.55
2023-03-27T09:04:29.040Z,2.95
2023-03-27T09:07:11.750Z,1.83
2023-03-27T09:10:18.380Z,2.10
2023-03-27T09:12:50.584Z,1.73
2023-03-27T09:15:30.344Z,2.58
2023-03-27T09:20:45.031Z,1.65
2023-03-27T09:23:22.932Z,2.65
2023-03-27T09:26:16.588Z,2.10
2023-03-27T09:29:20.326Z,3.10
2023-03-27T09:31:56.309Z,2.67
2023-03-27T09:34:34.705Z,2.65
2023-03-27T09:37:02.809Z,2.40
2023-03-27T09:39:38.748Z,1.88
2023-03-27T09:42:26.504Z,1.10
2023-03-27T09:44:57.334Z,1.20
2023-03-27T09:47:43.951Z,1.05
2023-03-27T09:50:20.731Z,1.00
2023-03-27T09:53:25.875Z,0.70
2023-03-27T09:56:14.430Z,0.73
2023-03-27T09:58:49.368Z,1.67
2023-03-27T10:01:28.409Z,1.15
2023-03-27T10:04:01.243Z,1.90
2023-03-27T10:06:56.994Z,0.98
2023-03-27T10:09:40.999Z,1.13
2023-03-27T10:12:18.281Z,1.65
2023-03-27T10:14:52.401Z,1.35
2023-03-27T10:17:36.757Z,1.15
2023-03-27T10:20:18.884Z,1.05
2023-03-27T10:22:57.100Z,0.80
2023-03-27T10:25:38.049Z,0.80
2023-03-27T10:28:34.398Z,1.40
2023-03-27T10:31:32.377Z,1.70
2023-03-27T10:34:32.697Z,2.38
2023-03-27T10:37:30.156Z,0.60
2023-03-27T10:40:35.094Z,0.40
2023-03-27T10:43:30.391Z,1.42
2023-03-27T10:46:05.838Z,2.13
2023-03-27T10:48:49.001Z,0.80
2023-03-27T10:51:46.165Z,1.20
2023-03-27T10:54:23.681Z,0.82
2023-03-27T10:57:02.459Z,2.90
2023-03-27T10:59:41.763Z,1.20
2023-03-27T11:02:28.541Z,1.38
2023-03-27T11:05:02.421Z,2.25
2023-03-27T11:07:37.956Z,1.80
2023-03-27T11:10:27.074Z,1.63
2023-03-27T11:13:04.127Z,1.42
2023-03-27T11:15:41.317Z,1.35
2023-03-27T11:18:39.076Z,1.40
2023-03-27T11:21:13.008Z,1.40
2023-03-27T11:23:58.536Z,1.97
2023-03-27T11:27:14.449Z,2.67
2023-03-27T11:29:53.884Z,2.65
2023-03-27T11:32:44.897Z,1.77
2023-03-27T11:35:17.691Z,1.77
2023-03-27T11:38:18.548Z,2.63
2023-03-27T11:40:49.439Z,2.97
2023-03-27T11:43:20.131Z,2.13
2023-03-27T11:46:06.873Z,2.47
2023-03-27T11:49:09.553Z,3.47
2023-03-27T11:51:37.530Z,2.70
2023-03-27T11:54:05.499Z,1.83
2023-03-27T11:57:06.269Z,1.23
2023-03-27T12:00:11.705Z,1.15
2023-03-27T12:03:28.616Z,1.52
2023-03-27T12:06:15.661Z,1.67
2023-03-27T12:08:59.098Z,0.82
2023-03-27T12:11:30.731Z,1.50
2023-03-27T12:14:28.253Z,1.40
2023-03-27T12:17:27.630Z,1.70
2023-03-27T12:20:33.683Z,2.10
2023-03-27T12:23:23.716Z,7.10
2023-03-27T12:26:42.509Z,2.60
2023-03-27T12:29:57.735Z,3.50
2023-03-27T12:32:32.139Z,0.98
2023-03-27T12:35:06.500Z,2.80
2023-03-27T12:37:43.907Z,1.77
2023-03-27T12:40:37.468Z,1.30
2023-03-27T12:43:11.302Z,2.78
2023-03-27T12:45:50.943Z,2.45
2023-03-27T12:48:21.629Z,4.10
2023-03-27T12:50:55.993Z,2.50
2023-03-27T12:53:30.464Z,4.47
2023-03-27T12:56:10.381Z,2.97
2023-03-27T12:58:40.169Z,2.88
2023-03-27T13:01:13.058Z,1.63
2023-03-27T13:04:43.576Z,0.70
2023-03-27T13:07:25.128Z,1.75
2023-03-27T13:10:08.301Z,1.67
2023-03-27T13:12:42.949Z,1.75
2023-03-27T13:15:28.071Z,1.52
2023-03-27T13:18:01.239Z,0.80
2023-03-27T13:21:19.104Z,2.53
2023-03-27T13:23:59.546Z,1.70
2023-03-27T13:27:15.348Z,1.63
2023-03-27T13:29:49.096Z,1.45
2023-03-27T13:32:38.190Z,0.70
2023-03-27T13:35:21.638Z,0.52
2023-03-27T13:37:49.150Z,1.25
2023-03-27T13:40:27.401Z,1.17
2023-03-27T13:43:21.740Z,0.70
2023-03-27T13:45:57.719Z,1.40
2023-03-27T13:48:50.245Z,2.70
2023-03-27T13:51:26.857Z,1.30
2023-03-27T13:54:50.481Z,1.20
2023-03-27T13:57:31.389Z,3.55
2023-03-27T14:00:27.664Z,3.03
2023-03-27T14:03:23.986Z,4.28
2023-03-27T14:07:12.459Z,3.03
2023-03-27T14:10:18.911Z,3.08
2023-03-27T14:13:17.297Z,2.47
2023-03-27T14:16:31.602Z,2.25
2023-03-27T14:22:00.935Z,2.55
2023-03-27T14:24:46.840Z,1.98
2023-03-27T14:27:35.060Z,1.52
2023-03-27T14:30:20.324Z,2.53
2023-03-27T14:32:56.613Z,1.70
2023-03-27T14:35:32.942Z,3.47
2023-03-27T14:38:31.616Z,2.75
2023-03-27T14:41:01.770Z,1.00
2023-03-27T14:43:54.095Z,1.00
2023-03-27T14:46:24.309Z,2.95
2023-03-27T14:48:58.135Z,2.33
2023-03-27T14:51:37.250Z,1.40
2023-03-27T14:54:13.937Z,3.15
2023-03-27T14:56:51.084Z,1.83
2023-03-27T14:59:43.090Z,4.78
2023-03-27T15:02:26.647Z,6.45
2023-03-27T15:05:04.843Z,0.98
2023-03-27T15:07:36.447Z,1.90
2023-03-27T15:10:38.229Z,0.60
2023-03-27T15:13:36.703Z,13.45
2023-03-27T15:16:14.135Z,3.92
2023-03-27T15:18:58.685Z,5.65
2023-03-27T15:21:44.089Z,28.65
2023-03-27T15:24:21.781Z,9.88
2023-03-27T15:26:51.984Z,29.85
2023-03-27T15:29:29.134Z,15.05
2023-03-27T15:31:59.781Z,27.75
2023-03-27T15:34:36.467Z,19.80
2023-03-27T15:37:10.115Z,7.03
2023-03-27T15:40:26.866Z,14.25
2023-03-27T15:43:02.129Z,6.85
2023-03-27T15:45:40.930Z,12.98
2023-03-27T15:48:23.523Z,7.88
2023-03-27T15:51:00.491Z,2.53
2023-03-27T15:53:38.641Z,3.10
2023-03-27T15:56:37.057Z,6.10
2023-03-27T15:59:07.001Z,6.20
2023-03-27T16:01:40.517Z,15.02
2023-03-27T16:04:11.925Z,7.90
2023-03-27T16:06:42.610Z,8.63
2023-03-27T16:09:33.509Z,21.65
2023-03-27T16:12:01.229Z,31.40
2023-03-27T16:14:48.058Z,94.15
2023-03-27T16:17:19.810Z,31.42
2023-03-27T16:19:57.735Z,10.73
2023-03-27T16:22:28.290Z,13.73
2023-03-27T16:24:56.938Z,5.47
2023-03-27T16:27:33.951Z,4.57
2023-03-27T16:30:01.404Z,2.85
2023-03-27T16:32:29.060Z,3.30
2023-03-27T16:34:56.509Z,1.35
2023-03-27T16:37:25.808Z,1.35
2023-03-27T16:39:54.507Z,2.38
2023-03-27T16:42:26.005Z,1.90
2023-03-27T16:44:54.119Z,3.33
2023-03-27T16:47:24.770Z,4.40
2023-03-27T16:50:08.009Z,3.00
2023-03-27T16:52:38.228Z,10.60
2023-03-27T16:55:07.526Z,3.58
2023-03-27T16:57:36.493Z,2.50
2023-03-27T17:00:05.850Z,4.22
2023-03-27T17:05:04.329Z,1.50
2023-03-27T17:07:32.357Z,1.75
2023-03-27T17:10:00.075Z,1.20
2023-03-27T17:12:32.340Z,1.00
2023-03-27T17:15:00.004Z,1.25
2023-03-27T17:17:30.658Z,1.90
2023-03-27T17:19:58.330Z,2.67
2023-03-27T17:22:26.866Z,2.20
2023-03-27T17:24:57.217Z,3.90
2023-03-27T17:27:26.790Z,2.50
2023-03-27T17:29:56.377Z,2.33
2023-03-27T17:34:53.554Z,2.20
2023-03-27T17:37:22.473Z,2.20
2023-03-27T17:39:50.480Z,2.33
2023-03-27T17:42:18.525Z,2.53
2023-03-27T17:44:47.174Z,2.28
2023-03-27T17:47:14.925Z,4.00
2023-03-27T17:49:43.492Z,5.20
2023-03-27T17:52:13.560Z,6.88
2023-03-27T17:54:41.698Z,6.45
2023-03-27T17:57:10.095Z,5.80
2023-03-27T17:59:38.609Z,4.43
2023-03-27T18:02:07.436Z,4.00
2023-03-27T18:04:35.204Z,2.72
2023-03-27T18:07:02.841Z,2.78
2023-03-27T18:12:01.233Z,3.10
2023-03-27T18:14:28.861Z,4.40
2023-03-27T18:16:57.067Z,4.85
2023-03-27T18:19:25.543Z,4.10
2023-03-27T18:21:54.323Z,5.32
2023-03-27T18:24:22.657Z,5.15
2023-03-27T18:26:50.931Z,7.75
2023-03-27T18:29:18.582Z,6.72
2023-03-27T18:31:47.990Z,8.52
2023-03-27T18:34:15.957Z,9.67
2023-03-27T18:36:50.877Z,10.95
2023-03-27T18:39:19.893Z,14.50
2023-03-27T18:41:48.002Z,23.95
2023-03-27T18:44:15.647Z,34.08
2023-03-27T18:46:43.666Z,53.35
2023-03-27T18:49:23.705Z,54.35
2023-03-27T18:51:53.075Z,57.53
2023-03-27T18:54:20.595Z,45.20
2023-03-27T18:56:48.864Z,49.17
2023-03-27T18:59:16.442Z,62.03
2023-03-27T19:01:44.303Z,60.72
2023-03-27T19:04:11.746Z,29.02
2023-03-27T19:06:39.517Z,30.20
2023-03-27T19:09:07.628Z,25.08
2023-03-27T19:11:37.158Z,13.45
2023-03-27T19:14:07.740Z,11.55
2023-03-27T19:16:44.760Z,11.00
2023-03-27T19:19:32.192Z,11.60
2023-03-27T19:22:19.030Z,12.23
2023-03-27T19:25:00.798Z,12.25
2023-03-27T19:27:38.716Z,12.52
2023-03-27T19:30:08.913Z,11.05
2023-03-27T19:32:39.208Z,13.52
2023-03-27T19:35:07.386Z,13.15
2023-03-27T19:37:35.891Z,24.00
2023-03-27T19:40:05.433Z,13.45
2023-03-27T19:42:33.535Z,12.15
2023-03-27T19:45:01.620Z,9.90
2023-03-27T19:47:29.901Z,14.82
2023-03-27T19:49:58.340Z,26.83
2023-03-27T19:53:05.366Z,30.77
2023-03-27T19:55:33.500Z,18.48
2023-03-27T19:58:01.159Z,12.88
2023-03-27T20:00:30.925Z,11.80
2023-03-27T20:02:59.897Z,9.15
2023-03-27T20:05:29.614Z,7.55
2023-03-27T20:07:57.499Z,9.40
2023-03-27T20:10:27.202Z,10.05
2023-03-27T20:15:22.750Z,25.48
2023-03-27T20:17:50.721Z,39.72
2023-03-27T20:20:20.150Z,26.00
2023-03-27T20:25:25.801Z,14.13
2023-03-27T20:27:53.472Z,13.40
2023-03-27T20:30:21.463Z,10.27
2023-03-27T20:32:51.072Z,8.77
2023-03-27T20:35:24.418Z,10.35
2023-03-27T20:37:58.138Z,10.40
2023-03-27T20:40:28.409Z,13.23
2023-03-27T20:43:03.596Z,9.60
2023-03-27T20:45:31.612Z,9.70
2023-03-27T20:48:03.245Z,10.57
2023-03-27T20:50:31.679Z,12.63
2023-03-27T20:52:59.155Z,11.88
2023-03-27T20:58:00.727Z,21.55
2023-03-27T21:00:28.031Z,17.50
2023-03-27T21:02:55.700Z,20.90
2023-03-27T21:05:23.008Z,16.23
2023-03-27T21:07:52.586Z,16.23
2023-03-27T21:10:24.625Z,14.35
2023-03-27T21:12:54.176Z,12.50
2023-03-27T21:15:21.440Z,11.75
2023-03-27T21:17:49.539Z,12.57
2023-03-27T21:20:17.006Z,11.90
2023-03-27T21:22:45.643Z,11.27
2023-03-27T21:25:12.965Z,10.48
2023-03-27T21:27:40.589Z,11.43
2023-03-27T21:30:09.650Z,10.88
2023-03-27T21:32:37.214Z,10.50
2023-03-27T21:35:04.560Z,9.73
2023-03-27T21:37:32.450Z,9.70
2023-03-27T21:39:59.887Z,11.23
2023-03-27T21:42:27.296Z,11.68
2023-03-27T21:44:57.036Z,10.93
2023-03-27T21:47:31.715Z,11.90
2023-03-27T21:52:32.128Z,10.68
2023-03-27T21:55:02.901Z,13.50
2023-03-27T21:57:31.226Z,18.45
2023-03-27T21:59:58.374Z,19.98
2023-03-27T22:02:25.939Z,12.40
2023-03-27T22:04:53.298Z,12.77
2023-03-27T22:07:20.894Z,12.80
2023-03-27T22:09:48.108Z,8.57
2023-03-27T22:12:16.800Z,10.73
2023-03-27T22:14:44.025Z,8.77
2023-03-27T22:17:11.416Z,8.00
2023-03-27T22:19:38.520Z,8.02
2023-03-27T22:22:06.065Z,6.50
2023-03-27T22:24:33.513Z,8.10
2023-03-27T22:27:01.081Z,8.90
2023-03-27T22:29:28.247Z,9.27
2023-03-27T22:31:55.681Z,8.73
2023-03-27T22:34:22.983Z,7.30
2023-03-27T22:36:50.309Z,7.53
2023-03-27T22:39:17.524Z,8.13
2023-03-27T22:41:45.062Z,9.57
2023-03-27T22:44:12.349Z,8.25
2023-03-27T22:46:39.884Z,6.45
2023-03-27T22:49:06.952Z,6.47
2023-03-27T22:51:34.482Z,5.97
2023-03-27T22:54:01.919Z,6.18
2023-03-27T22:56:29.525Z,7.70
2023-03-27T22:58:57.724Z,7.47
2023-03-27T23:01:25.136Z,7.20
2023-03-27T23:03:53.649Z,8.27
2023-03-27T23:06:23.761Z,8.55
2023-03-27T23:08:51.460Z,9.65
2023-03-27T23:11:19.653Z,10.50
2023-03-27T23:13:47.449Z,9.02
2023-03-27T23:16:14.969Z,10.43
2023-03-27T23:18:41.987Z,9.60
2023-03-27T23:21:12.010Z,9.98
2023-03-27T23:23:40.538Z,11.48
2023-03-27T23:26:09.115Z,9.97
2023-03-27T23:28:39.027Z,9.63
2023-03-27T23:31:10.379Z,10.27
2023-03-27T23:33:40.242Z,11.75
2023-03-27T23:36:11.381Z,11.68
2023-03-27T23:38:39.232Z,11.10
2023-03-27T23:41:07.239Z,10.98
2023-03-27T23:43:34.893Z,8.90
2023-03-27T23:46:04.071Z,8.77
2023-03-27T23:48:31.759Z,9.85
2023-03-27T23:50:59.099Z,17.50
2023-03-27T23:53:27.887Z,14.45
2023-03-27T23:55:56.774Z,13.32
2023-03-27T23:58:25.338Z,13.63
